sensor_id;sensor_type;location;lat;lon;timestamp;P1;durP1;ratioP1;P2;durP2;ratioP2
22363;SDS011;11349;53.412;-1.328;2023-09-12T00:01:00;9.05;;;4.90;;
22363;SDS011;11349;53.412;-1.328;2023-09-12T00:03:32;6.63;;;4.65;;
22363;SDS011;11349;53.412;-1.328;2023-09-12T00:05:59;10.30;;;5.53;;
22363;SDS011;11349;53.412;-1.328;2023-09-12T00:08:26;9.13;;;5.50;;
22363;SDS011;11349;53.412;-1.328;2023-09-12T00:11:05;8.80;;;5.72;;
22363;SDS011;11349;53.412;-1.328;2023-09-12T00:13:35;9.65;;;4.97;;
22363;SDS011;11349;53.412;-1.328;2023-09-12T00:16:01;14.40;;;5.95;;
22363;SDS011;11349;53.412;-1.328;2023-09-12T00:18:27;8.18;;;5.90;;
22363;SDS011;11349;53.412;-1.328;2023-09-12T00:20:53;13.02;;;6.65;;
22363;SDS011;11349;53.412;-1.328;2023-09-12T00:23:20;9.73;;;6.65;;
22363;SDS011;11349;53.412;-1.328;2023-09-12T00:25:48;10.35;;;6.43;;
22363;SDS011;11349;53.412;-1.328;2023-09-12T00:28:16;6.68;;;4.95;;
22363;SDS011;11349;53.412;-1.328;2023-09-12T00:30:42;7.88;;;4.97;;
22363;SDS011;11349;53.412;-1.328;2023-09-12T00:33:08;7.75;;;5.72;;
22363;SDS011;11349;53.412;-1.328;2023-09-12T00:35:34;7.43;;;5.22;;
22363;SDS011;11349;53.412;-1.328;2023-09-12T00:37:59;9.40;;;5.82;;
22363;SDS011;11349;53.412;-1.328;2023-09-12T00:40:25;9.40;;;5.80;;
22363;SDS011;11349;53.412;-1.328;2023-09-12T00:42:51;8.38;;;5.90;;
22363;SDS011;11349;53.412;-1.328;2023-09-12T00:45:17;9.60;;;6.60;;
22363;SDS011;11349;53.412;-1.328;2023-09-12T00:47:42;9.48;;;7.00;;
22363;SDS011;11349;53.412;-1.328;2023-09-12T00:50:11;10.18;;;7.70;;
22363;SDS011;11349;53.412;-1.328;2023-09-12T00:52:38;9.45;;;6.82;;
22363;SDS011;11349;53.412;-1.328;2023-09-12T00:55:04;9.13;;;6.57;;
22363;SDS011;11349;53.412;-1.328;2023-09-12T00:57:31;11.25;;;6.80;;
22363;SDS011;11349;53.412;-1.328;2023-09-12T00:59:59;11.38;;;7.32;;
22363;SDS011;11349;53.412;-1.328;2023-09-12T01:02:36;10.20;;;7.38;;
22363;SDS011;11349;53.412;-1.328;2023-09-12T01:05:02;12.18;;;8.73;;
22363;SDS011;11349;53.412;-1.328;2023-09-12T01:07:29;12.70;;;8.77;;
22363;SDS011;11349;53.412;-1.328;2023-09-12T01:09:55;12.00;;;8.30;;
22363;SDS011;11349;53.412;-1.328;2023-09-12T01:12:21;12.25;;;8.63;;
22363;SDS011;11349;53.412;-1.328;2023-09-12T01:14:47;11.63;;;8.38;;
22363;SDS011;11349;53.412;-1.328;2023-09-12T01:17:14;14.10;;;8.20;;
22363;SDS011;11349;53.412;-1.328;2023-09-12T01:19:40;11.57;;;8.05;;
22363;SDS011;11349;53.412;-1.328;2023-09-12T01:27:16;11.60;;;6.35;;
22363;SDS011;11349;53.412;-1.328;2023-09-12T01:29:53;8.68;;;6.18;;
22363;SDS011;11349;53.412;-1.328;2023-09-12T01:32:22;10.80;;;5.10;;
22363;SDS011;11349;53.412;-1.328;2023-09-12T01:34:48;6.45;;;5.03;;
22363;SDS011;11349;53.412;-1.328;2023-09-12T01:37:14;9.27;;;6.00;;
22363;SDS011;11349;53.412;-1.328;2023-09-12T01:39:40;8.50;;;6.05;;
22363;SDS011;11349;53.412;-1.328;2023-09-12T01:42:08;10.00;;;7.25;;
22363;SDS011;11349;53.412;-1.328;2023-09-12T01:44:37;11.77;;;7.95;;
22363;SDS011;11349;53.412;-1.328;2023-09-12T01:47:03;10.85;;;7.40;;
22363;SDS011;11349;53.412;-1.328;2023-09-12T01:49:31;11.23;;;8.40;;
22363;SDS011;11349;53.412;-1.328;2023-09-12T01:51:58;11.77;;;8.27;;
22363;SDS011;11349;53.412;-1.328;2023-09-12T01:54:26;13.23;;;9.07;;
22363;SDS011;11349;53.412;-1.328;2023-09-12T01:56:55;13.73;;;9.48;;
22363;SDS011;11349;53.412;-1.328;2023-09-12T01:59:23;12.85;;;9.20;;
22363;SDS011;11349;53.412;-1.328;2023-09-12T02:01:50;12.38;;;9.32;;
22363;SDS011;11349;53.412;-1.328;2023-09-12T02:04:16;12.15;;;8.88;;
22363;SDS011;11349;53.412;-1.328;2023-09-12T02:06:41;14.45;;;9.57;;
22363;SDS011;11349;53.412;-1.328;2023-09-12T02:09:07;14.40;;;9.77;;
22363;SDS011;11349;53.412;-1.328;2023-09-12T02:11:33;12.52;;;9.30;;
22363;SDS011;11349;53.412;-1.328;2023-09-12T02:13:58;10.82;;;7.90;;
22363;SDS011;11349;53.412;-1.328;2023-09-12T02:16:24;8.85;;;6.40;;
22363;SDS011;11349;53.412;-1.328;2023-09-12T02:18:50;8.32;;;5.70;;
22363;SDS011;11349;53.412;-1.328;2023-09-12T02:21:15;10.02;;;5.78;;
22363;SDS011;11349;53.412;-1.328;2023-09-12T02:23:41;7.82;;;5.40;;
22363;SDS011;11349;53.412;-1.328;2023-09-12T02:26:07;7.45;;;5.60;;
22363;SDS011;11349;53.412;-1.328;2023-09-12T02:28:33;7.10;;;5.90;;
22363;SDS011;11349;53.412;-1.328;2023-09-12T02:30:59;8.05;;;5.88;;
22363;SDS011;11349;53.412;-1.328;2023-09-12T02:33:24;9.23;;;6.10;;
22363;SDS011;11349;53.412;-1.328;2023-09-12T02:35:50;6.35;;;5.38;;
22363;SDS011;11349;53.412;-1.328;2023-09-12T02:38:17;8.75;;;6.55;;
22363;SDS011;11349;53.412;-1.328;2023-09-12T02:40:43;6.93;;;5.75;;
22363;SDS011;11349;53.412;-1.328;2023-09-12T02:43:08;6.65;;;5.60;;
22363;SDS011;11349;53.412;-1.328;2023-09-12T02:45:34;6.53;;;5.18;;
22363;SDS011;11349;53.412;-1.328;2023-09-12T02:48:00;9.80;;;5.00;;
22363;SDS011;11349;53.412;-1.328;2023-09-12T02:50:26;6.97;;;5.03;;
22363;SDS011;11349;53.412;-1.328;2023-09-12T02:52:51;5.70;;;4.20;;
22363;SDS011;11349;53.412;-1.328;2023-09-12T02:55:17;10.23;;;4.75;;
22363;SDS011;11349;53.412;-1.328;2023-09-12T02:57:43;6.55;;;4.40;;
22363;SDS011;11349;53.412;-1.328;2023-09-12T03:00:09;9.63;;;4.78;;
22363;SDS011;11349;53.412;-1.328;2023-09-12T03:02:36;4.80;;;3.70;;
22363;SDS011;11349;53.412;-1.328;2023-09-12T03:05:02;4.55;;;3.50;;
22363;SDS011;11349;53.412;-1.328;2023-09-12T03:07:29;4.90;;;3.45;;
22363;SDS011;11349;53.412;-1.328;2023-09-12T03:09:55;4.82;;;3.03;;
22363;SDS011;11349;53.412;-1.328;2023-09-12T03:12:21;5.38;;;3.15;;
22363;SDS011;11349;53.412;-1.328;2023-09-12T03:14:46;3.97;;;2.75;;
22363;SDS011;11349;53.412;-1.328;2023-09-12T03:17:12;3.95;;;2.95;;
22363;SDS011;11349;53.412;-1.328;2023-09-12T03:19:38;5.30;;;2.85;;
22363;SDS011;11349;53.412;-1.328;2023-09-12T03:22:04;5.60;;;3.60;;
22363;SDS011;11349;53.412;-1.328;2023-09-12T03:24:30;6.95;;;3.45;;
22363;SDS011;11349;53.412;-1.328;2023-09-12T03:26:56;5.63;;;3.15;;
22363;SDS011;11349;53.412;-1.328;2023-09-12T03:29:21;4.55;;;3.08;;
22363;SDS011;11349;53.412;-1.328;2023-09-12T03:31:48;5.20;;;3.60;;
22363;SDS011;11349;53.412;-1.328;2023-09-12T03:34:13;5.15;;;3.10;;
22363;SDS011;11349;53.412;-1.328;2023-09-12T03:36:39;5.25;;;3.60;;
22363;SDS011;11349;53.412;-1.328;2023-09-12T03:39:05;7.13;;;3.30;;
22363;SDS011;11349;53.412;-1.328;2023-09-12T03:41:33;4.45;;;3.33;;
22363;SDS011;11349;53.412;-1.328;2023-09-12T03:43:59;6.03;;;3.63;;
22363;SDS011;11349;53.412;-1.328;2023-09-12T03:46:25;5.05;;;3.30;;
22363;SDS011;11349;53.412;-1.328;2023-09-12T03:48:51;6.03;;;4.47;;
22363;SDS011;11349;53.412;-1.328;2023-09-12T03:51:16;6.10;;;4.25;;
22363;SDS011;11349;53.412;-1.328;2023-09-12T03:53:42;6.68;;;3.83;;
22363;SDS011;11349;53.412;-1.328;2023-09-12T03:56:08;5.68;;;4.15;;
22363;SDS011;11349;53.412;-1.328;2023-09-12T03:58:37;5.75;;;4.53;;
22363;SDS011;11349;53.412;-1.328;2023-09-12T04:01:04;6.85;;;4.68;;
22363;SDS011;11349;53.412;-1.328;2023-09-12T04:03:30;5.85;;;4.47;;
22363;SDS011;11349;53.412;-1.328;2023-09-12T04:05:56;6.20;;;4.30;;
22363;SDS011;11349;53.412;-1.328;2023-09-12T04:08:21;7.15;;;4.22;;
22363;SDS011;11349;53.412;-1.328;2023-09-12T04:10:47;5.18;;;3.95;;
22363;SDS011;11349;53.412;-1.328;2023-09-12T04:13:13;5.32;;;4.10;;
22363;SDS011;11349;53.412;-1.328;2023-09-12T04:15:38;6.60;;;3.97;;
22363;SDS011;11349;53.412;-1.328;2023-09-12T04:18:04;4.68;;;3.53;;
22363;SDS011;11349;53.412;-1.328;2023-09-12T04:20:30;5.13;;;3.78;;
22363;SDS011;11349;53.412;-1.328;2023-09-12T04:22:56;4.60;;;3.53;;
22363;SDS011;11349;53.412;-1.328;2023-09-12T04:25:21;5.70;;;3.90;;
22363;SDS011;11349;53.412;-1.328;2023-09-12T04:27:47;6.93;;;3.55;;
22363;SDS011;11349;53.412;-1.328;2023-09-12T04:30:13;5.22;;;3.55;;
22363;SDS011;11349;53.412;-1.328;2023-09-12T04:32:38;5.95;;;3.70;;
22363;SDS011;11349;53.412;-1.328;2023-09-12T04:35:04;5.13;;;3.80;;
22363;SDS011;11349;53.412;-1.328;2023-09-12T04:37:30;6.10;;;4.28;;
22363;SDS011;11349;53.412;-1.328;2023-09-12T04:39:56;6.00;;;3.55;;
22363;SDS011;11349;53.412;-1.328;2023-09-12T04:42:22;5.40;;;2.72;;
22363;SDS011;11349;53.412;-1.328;2023-09-12T04:44:47;4.18;;;2.83;;
22363;SDS011;11349;53.412;-1.328;2023-09-12T04:47:13;4.43;;;2.75;;
22363;SDS011;11349;53.412;-1.328;2023-09-12T04:49:39;3.38;;;2.13;;
22363;SDS011;11349;53.412;-1.328;2023-09-12T04:52:05;4.60;;;3.05;;
22363;SDS011;11349;53.412;-1.328;2023-09-12T04:54:31;4.35;;;2.35;;
22363;SDS011;11349;53.412;-1.328;2023-09-12T04:56:57;7.95;;;3.35;;
22363;SDS011;11349;53.412;-1.328;2023-09-12T04:59:23;5.22;;;3.50;;
22363;SDS011;11349;53.412;-1.328;2023-09-12T05:01:49;4.57;;;3.38;;
22363;SDS011;11349;53.412;-1.328;2023-09-12T05:04:15;6.43;;;3.85;;
22363;SDS011;11349;53.412;-1.328;2023-09-12T05:06:41;5.97;;;5.13;;
22363;SDS011;11349;53.412;-1.328;2023-09-12T05:09:07;8.02;;;5.88;;
22363;SDS011;11349;53.412;-1.328;2023-09-12T05:11:34;6.15;;;5.30;;
22363;SDS011;11349;53.412;-1.328;2023-09-12T05:14:00;7.13;;;4.53;;
22363;SDS011;11349;53.412;-1.328;2023-09-12T05:16:28;5.50;;;4.35;;
22363;SDS011;11349;53.412;-1.328;2023-09-12T05:18:56;5.88;;;4.18;;
22363;SDS011;11349;53.412;-1.328;2023-09-12T05:21:22;5.05;;;3.80;;
22363;SDS011;11349;53.412;-1.328;2023-09-12T05:23:47;6.78;;;4.10;;
22363;SDS011;11349;53.412;-1.328;2023-09-12T05:26:13;5.00;;;3.45;;
22363;SDS011;11349;53.412;-1.328;2023-09-12T05:28:39;4.35;;;3.13;;
22363;SDS011;11349;53.412;-1.328;2023-09-12T05:31:05;4.90;;;3.28;;
22363;SDS011;11349;53.412;-1.328;2023-09-12T05:33:30;5.32;;;3.20;;
22363;SDS011;11349;53.412;-1.328;2023-09-12T05:35:56;5.50;;;3.75;;
22363;SDS011;11349;53.412;-1.328;2023-09-12T05:38:23;5.93;;;3.42;;
22363;SDS011;11349;53.412;-1.328;2023-09-12T05:40:48;5.88;;;3.58;;
22363;SDS011;11349;53.412;-1.328;2023-09-12T05:43:15;5.55;;;3.63;;
22363;SDS011;11349;53.412;-1.328;2023-09-12T05:45:41;6.05;;;3.50;;
22363;SDS011;11349;53.412;-1.328;2023-09-12T05:48:10;5.82;;;3.75;;
22363;SDS011;11349;53.412;-1.328;2023-09-12T05:50:38;6.10;;;3.80;;
22363;SDS011;11349;53.412;-1.328;2023-09-12T05:53:04;4.05;;;3.28;;
22363;SDS011;11349;53.412;-1.328;2023-09-12T05:55:30;4.63;;;3.17;;
22363;SDS011;11349;53.412;-1.328;2023-09-12T05:57:56;5.40;;;2.85;;
22363;SDS011;11349;53.412;-1.328;2023-09-12T06:00:21;4.03;;;3.10;;
22363;SDS011;11349;53.412;-1.328;2023-09-12T06:02:47;3.03;;;2.30;;
22363;SDS011;11349;53.412;-1.328;2023-09-12T06:05:13;4.20;;;2.00;;
22363;SDS011;11349;53.412;-1.328;2023-09-12T06:07:40;3.28;;;2.08;;
22363;SDS011;11349;53.412;-1.328;2023-09-12T06:10:06;4.55;;;1.70;;
22363;SDS011;11349;53.412;-1.328;2023-09-12T06:12:35;3.45;;;1.80;;
22363;SDS011;11349;53.412;-1.328;2023-09-12T06:15:03;4.20;;;1.70;;
22363;SDS011;11349;53.412;-1.328;2023-09-12T06:17:30;4.53;;;2.13;;
22363;SDS011;11349;53.412;-1.328;2023-09-12T06:19:56;4.40;;;1.98;;
22363;SDS011;11349;53.412;-1.328;2023-09-12T06:22:22;1.55;;;1.08;;
22363;SDS011;11349;53.412;-1.328;2023-09-12T06:24:48;2.65;;;1.40;;
22363;SDS011;11349;53.412;-1.328;2023-09-12T06:27:17;1.85;;;1.20;;
22363;SDS011;11349;53.412;-1.328;2023-09-12T06:29:50;2.80;;;0.95;;
22363;SDS011;11349;53.412;-1.328;2023-09-12T06:32:16;1.90;;;0.70;;
22363;SDS011;11349;53.412;-1.328;2023-09-12T06:34:43;1.40;;;0.63;;
22363;SDS011;11349;53.412;-1.328;2023-09-12T06:37:10;1.17;;;0.60;;
22363;SDS011;11349;53.412;-1.328;2023-09-12T06:39:36;3.25;;;0.82;;
22363;SDS011;11349;53.412;-1.328;2023-09-12T06:42:02;1.48;;;0.65;;
22363;SDS011;11349;53.412;-1.328;2023-09-12T06:44:28;2.28;;;0.75;;
22363;SDS011;11349;53.412;-1.328;2023-09-12T06:46:53;1.17;;;0.60;;
22363;SDS011;11349;53.412;-1.328;2023-09-12T06:49:19;1.70;;;0.90;;
22363;SDS011;11349;53.412;-1.328;2023-09-12T06:51:45;4.35;;;0.93;;
22363;SDS011;11349;53.412;-1.328;2023-09-12T06:54:10;1.77;;;0.90;;
22363;SDS011;11349;53.412;-1.328;2023-09-12T06:56:37;5.85;;;1.13;;
22363;SDS011;11349;53.412;-1.328;2023-09-12T06:59:03;2.78;;;0.93;;
22363;SDS011;11349;53.412;-1.328;2023-09-12T07:01:29;3.92;;;1.30;;
22363;SDS011;11349;53.412;-1.328;2023-09-12T07:03:56;2.13;;;1.02;;
22363;SDS011;11349;53.412;-1.328;2023-09-12T07:06:22;2.95;;;1.27;;
22363;SDS011;11349;53.412;-1.328;2023-09-12T07:08:48;2.83;;;1.17;;
22363;SDS011;11349;53.412;-1.328;2023-09-12T07:11:14;3.25;;;1.35;;
22363;SDS011;11349;53.412;-1.328;2023-09-12T07:13:40;1.42;;;0.93;;
22363;SDS011;11349;53.412;-1.328;2023-09-12T07:16:06;2.15;;;1.17;;
22363;SDS011;11349;53.412;-1.328;2023-09-12T07:18:32;2.38;;;1.13;;
22363;SDS011;11349;53.412;-1.328;2023-09-12T07:21:01;5.97;;;1.67;;
22363;SDS011;11349;53.412;-1.328;2023-09-12T07:23:28;3.75;;;1.42;;
22363;SDS011;11349;53.412;-1.328;2023-09-12T07:25:55;2.95;;;1.27;;
22363;SDS011;11349;53.412;-1.328;2023-09-12T07:28:26;3.03;;;1.33;;
22363;SDS011;11349;53.412;-1.328;2023-09-12T07:30:53;4.85;;;1.40;;
22363;SDS011;11349;53.412;-1.328;2023-09-12T07:33:19;2.15;;;1.13;;
22363;SDS011;11349;53.412;-1.328;2023-09-12T07:35:46;2.15;;;1.33;;
22363;SDS011;11349;53.412;-1.328;2023-09-12T07:38:12;2.40;;;1.08;;
22363;SDS011;11349;53.412;-1.328;2023-09-12T07:40:40;3.50;;;1.48;;
22363;SDS011;11349;53.412;-1.328;2023-09-12T07:43:07;2.92;;;1.50;;
22363;SDS011;11349;53.412;-1.328;2023-09-12T07:45:34;4.05;;;1.48;;
22363;SDS011;11349;53.412;-1.328;2023-09-12T07:48:06;2.92;;;1.80;;
22363;SDS011;11349;53.412;-1.328;2023-09-12T07:50:33;2.78;;;1.40;;
22363;SDS011;11349;53.412;-1.328;2023-09-12T07:52:58;2.60;;;1.23;;
22363;SDS011;11349;53.412;-1.328;2023-09-12T07:55:24;2.15;;;1.20;;
22363;SDS011;11349;53.412;-1.328;2023-09-12T07:57:50;2.40;;;1.25;;
22363;SDS011;11349;53.412;-1.328;2023-09-12T08:00:16;2.90;;;1.20;;
22363;SDS011;11349;53.412;-1.328;2023-09-12T08:02:42;1.75;;;1.00;;
22363;SDS011;11349;53.412;-1.328;2023-09-12T08:05:08;3.17;;;1.40;;
22363;SDS011;11349;53.412;-1.328;2023-09-12T08:07:34;2.60;;;1.23;;
22363;SDS011;11349;53.412;-1.328;2023-09-12T08:10:01;2.90;;;1.30;;
22363;SDS011;11349;53.412;-1.328;2023-09-12T08:12:27;2.05;;;1.38;;
22363;SDS011;11349;53.412;-1.328;2023-09-12T08:14:54;2.45;;;1.33;;
22363;SDS011;11349;53.412;-1.328;2023-09-12T08:17:20;1.77;;;1.10;;
22363;SDS011;11349;53.412;-1.328;2023-09-12T08:19:47;2.05;;;1.20;;
22363;SDS011;11349;53.412;-1.328;2023-09-12T08:22:12;1.73;;;1.10;;
22363;SDS011;11349;53.412;-1.328;2023-09-12T08:24:38;1.90;;;1.13;;
22363;SDS011;11349;53.412;-1.328;2023-09-12T08:27:04;2.78;;;1.40;;
22363;SDS011;11349;53.412;-1.328;2023-09-12T08:29:31;1.88;;;1.02;;
22363;SDS011;11349;53.412;-1.328;2023-09-12T08:31:58;1.70;;;0.90;;
22363;SDS011;11349;53.412;-1.328;2023-09-12T08:34:24;2.30;;;1.02;;
22363;SDS011;11349;53.412;-1.328;2023-09-12T08:36:50;2.45;;;1.00;;
22363;SDS011;11349;53.412;-1.328;2023-09-12T08:39:17;2.60;;;1.20;;
22363;SDS011;11349;53.412;-1.328;2023-09-12T08:41:49;1.60;;;0.80;;
22363;SDS011;11349;53.412;-1.328;2023-09-12T08:44:15;1.95;;;1.00;;
22363;SDS011;11349;53.412;-1.328;2023-09-12T08:46:41;1.75;;;1.15;;
22363;SDS011;11349;53.412;-1.328;2023-09-12T08:49:08;2.45;;;1.30;;
22363;SDS011;11349;53.412;-1.328;2023-09-12T08:51:37;2.40;;;1.10;;
22363;SDS011;11349;53.412;-1.328;2023-09-12T08:54:04;2.03;;;1.05;;
22363;SDS011;11349;53.412;-1.328;2023-09-12T08:56:32;2.83;;;1.20;;
22363;SDS011;11349;53.412;-1.328;2023-09-12T08:58:59;1.95;;;0.95;;
22363;SDS011;11349;53.412;-1.328;2023-09-12T09:01:26;2.17;;;1.20;;
22363;SDS011;11349;53.412;-1.328;2023-09-12T09:03:55;2.25;;;1.40;;
22363;SDS011;11349;53.412;-1.328;2023-09-12T09:06:22;2.17;;;1.08;;
22363;SDS011;11349;53.412;-1.328;2023-09-12T09:08:49;2.85;;;1.25;;
22363;SDS011;11349;53.412;-1.328;2023-09-12T09:11:16;2.78;;;1.25;;
22363;SDS011;11349;53.412;-1.328;2023-09-12T09:13:41;2.42;;;1.63;;
22363;SDS011;11349;53.412;-1.328;2023-09-12T09:16:14;5.93;;;3.33;;
22363;SDS011;11349;53.412;-1.328;2023-09-12T09:21:27;3.00;;;1.40;;
22363;SDS011;11349;53.412;-1.328;2023-09-12T09:23:58;3.13;;;1.58;;
22363;SDS011;11349;53.412;-1.328;2023-09-12T09:26:25;2.38;;;1.65;;
22363;SDS011;11349;53.412;-1.328;2023-09-12T09:29:08;3.80;;;1.30;;
22363;SDS011;11349;53.412;-1.328;2023-09-12T09:31:35;2.95;;;1.48;;
22363;SDS011;11349;53.412;-1.328;2023-09-12T09:34:04;3.45;;;2.15;;
22363;SDS011;11349;53.412;-1.328;2023-09-12T09:36:42;4.28;;;1.98;;
22363;SDS011;11349;53.412;-1.328;2023-09-12T09:39:08;3.47;;;1.80;;
22363;SDS011;11349;53.412;-1.328;2023-09-12T09:41:34;5.40;;;2.60;;
22363;SDS011;11349;53.412;-1.328;2023-09-12T09:44:02;3.58;;;1.85;;
22363;SDS011;11349;53.412;-1.328;2023-09-12T09:46:29;3.45;;;1.92;;
22363;SDS011;11349;53.412;-1.328;2023-09-12T09:48:55;3.67;;;2.08;;
22363;SDS011;11349;53.412;-1.328;2023-09-12T09:51:20;3.08;;;1.80;;
22363;SDS011;11349;53.412;-1.328;2023-09-12T09:53:46;2.92;;;1.60;;
22363;SDS011;11349;53.412;-1.328;2023-09-12T09:56:17;4.43;;;1.80;;
22363;SDS011;11349;53.412;-1.328;2023-09-12T10:01:21;4.18;;;1.63;;
22363;SDS011;11349;53.412;-1.328;2023-09-12T10:03:49;6.05;;;1.95;;
22363;SDS011;11349;53.412;-1.328;2023-09-12T10:06:18;4.43;;;1.80;;
22363;SDS011;11349;53.412;-1.328;2023-09-12T10:08:45;3.20;;;1.80;;
22363;SDS011;11349;53.412;-1.328;2023-09-12T10:11:16;4.43;;;2.00;;
22363;SDS011;11349;53.412;-1.328;2023-09-12T10:13:55;4.78;;;2.42;;
22363;SDS011;11349;53.412;-1.328;2023-09-12T10:16:27;6.40;;;2.13;;
22363;SDS011;11349;53.412;-1.328;2023-09-12T10:21:45;5.38;;;2.30;;
22363;SDS011;11349;53.412;-1.328;2023-09-12T10:24:15;3.92;;;2.72;;
22363;SDS011;11349;53.412;-1.328;2023-09-12T10:26:42;5.75;;;2.80;;
22363;SDS011;11349;53.412;-1.328;2023-09-12T10:29:12;5.30;;;3.22;;
22363;SDS011;11349;53.412;-1.328;2023-09-12T10:31:39;4.75;;;3.17;;
22363;SDS011;11349;53.412;-1.328;2023-09-12T10:34:06;3.97;;;2.70;;
22363;SDS011;11349;53.412;-1.328;2023-09-12T10:36:38;3.15;;;2.10;;
22363;SDS011;11349;53.412;-1.328;2023-09-12T10:39:05;3.90;;;1.77;;
22363;SDS011;11349;53.412;-1.328;2023-09-12T10:41:32;4.65;;;2.05;;
22363;SDS011;11349;53.412;-1.328;2023-09-12T10:43:58;5.65;;;2.15;;
22363;SDS011;11349;53.412;-1.328;2023-09-12T10:46:26;5.07;;;2.03;;
22363;SDS011;11349;53.412;-1.328;2023-09-12T10:48:52;4.40;;;2.00;;
22363;SDS011;11349;53.412;-1.328;2023-09-12T10:51:19;4.22;;;1.83;;
22363;SDS011;11349;53.412;-1.328;2023-09-12T10:53:45;3.75;;;2.15;;
22363;SDS011;11349;53.412;-1.328;2023-09-12T10:56:15;4.95;;;2.22;;
22363;SDS011;11349;53.412;-1.328;2023-09-12T10:59:27;4.93;;;2.72;;
22363;SDS011;11349;53.412;-1.328;2023-09-12T11:01:29;3.85;;;2.10;;
22363;SDS011;11349;53.412;-1.328;2023-09-12T11:03:55;3.28;;;1.88;;
22363;SDS011;11349;53.412;-1.328;2023-09-12T11:06:31;2.88;;;1.55;;
22363;SDS011;11349;53.412;-1.328;2023-09-12T11:09:15;4.00;;;1.80;;
22363;SDS011;11349;53.412;-1.328;2023-09-12T11:11:44;4.30;;;1.73;;
22363;SDS011;11349;53.412;-1.328;2023-09-12T11:14:12;2.65;;;1.40;;
22363;SDS011;11349;53.412;-1.328;2023-09-12T11:16:38;4.03;;;1.70;;
22363;SDS011;11349;53.412;-1.328;2023-09-12T11:21:44;3.08;;;1.20;;
22363;SDS011;11349;53.412;-1.328;2023-09-12T11:24:14;3.20;;;1.60;;
22363;SDS011;11349;53.412;-1.328;2023-09-12T11:27:02;4.40;;;1.63;;
22363;SDS011;11349;53.412;-1.328;2023-09-12T11:29:37;2.17;;;1.20;;
22363;SDS011;11349;53.412;-1.328;2023-09-12T11:32:04;2.05;;;1.23;;
22363;SDS011;11349;53.412;-1.328;2023-09-12T11:34:38;2.67;;;1.10;;
22363;SDS011;11349;53.412;-1.328;2023-09-12T11:37:06;2.78;;;1.30;;
22363;SDS011;11349;53.412;-1.328;2023-09-12T11:39:33;2.90;;;1.10;;
22363;SDS011;11349;53.412;-1.328;2023-09-12T11:42:00;1.65;;;1.02;;
22363;SDS011;11349;53.412;-1.328;2023-09-12T11:44:27;2.63;;;1.40;;
22363;SDS011;11349;53.412;-1.328;2023-09-12T11:46:56;3.58;;;1.20;;
22363;SDS011;11349;53.412;-1.328;2023-09-12T11:49:28;2.55;;;1.30;;
22363;SDS011;11349;53.412;-1.328;2023-09-12T11:52:07;2.50;;;1.30;;
22363;SDS011;11349;53.412;-1.328;2023-09-12T11:54:34;3.33;;;1.95;;
22363;SDS011;11349;53.412;-1.328;2023-09-12T11:56:59;5.38;;;1.55;;
22363;SDS011;11349;53.412;-1.328;2023-09-12T11:59:27;2.42;;;1.58;;
22363;SDS011;11349;53.412;-1.328;2023-09-12T12:01:54;2.78;;;1.13;;
22363;SDS011;11349;53.412;-1.328;2023-09-12T12:04:21;3.45;;;1.30;;
22363;SDS011;11349;53.412;-1.328;2023-09-12T12:06:48;2.60;;;1.23;;
22363;SDS011;11349;53.412;-1.328;2023-09-12T12:09:17;2.95;;;1.38;;
22363;SDS011;11349;53.412;-1.328;2023-09-12T12:11:45;3.25;;;1.27;;
22363;SDS011;11349;53.412;-1.328;2023-09-12T12:16:37;4.22;;;1.55;;
22363;SDS011;11349;53.412;-1.328;2023-09-12T12:19:03;4.50;;;1.20;;
22363;SDS011;11349;53.412;-1.328;2023-09-12T12:21:29;4.40;;;1.52;;
22363;SDS011;11349;53.412;-1.328;2023-09-12T12:24:02;5.82;;;1.73;;
22363;SDS011;11349;53.412;-1.328;2023-09-12T12:26:29;3.60;;;1.70;;
22363;SDS011;11349;53.412;-1.328;2023-09-12T12:28:56;4.35;;;1.65;;
22363;SDS011;11349;53.412;-1.328;2023-09-12T12:31:28;7.32;;;1.77;;
22363;SDS011;11349;53.412;-1.328;2023-09-12T12:33:54;3.70;;;1.40;;
22363;SDS011;11349;53.412;-1.328;2023-09-12T12:36:20;4.80;;;1.80;;
22363;SDS011;11349;53.412;-1.328;2023-09-12T12:38:47;6.30;;;2.28;;
22363;SDS011;11349;53.412;-1.328;2023-09-12T12:41:21;3.60;;;1.52;;
22363;SDS011;11349;53.412;-1.328;2023-09-12T12:43:49;5.03;;;2.00;;
22363;SDS011;11349;53.412;-1.328;2023-09-12T12:46:19;7.00;;;1.85;;
22363;SDS011;11349;53.412;-1.328;2023-09-12T12:48:49;5.90;;;1.95;;
22363;SDS011;11349;53.412;-1.328;2023-09-12T12:51:15;3.95;;;1.88;;
22363;SDS011;11349;53.412;-1.328;2023-09-12T12:53:48;4.25;;;2.22;;
22363;SDS011;11349;53.412;-1.328;2023-09-12T12:56:19;5.72;;;2.15;;
22363;SDS011;11349;53.412;-1.328;2023-09-12T12:58:55;4.18;;;1.88;;
22363;SDS011;11349;53.412;-1.328;2023-09-12T13:01:23;5.93;;;1.80;;
22363;SDS011;11349;53.412;-1.328;2023-09-12T13:03:49;5.03;;;1.95;;
22363;SDS011;11349;53.412;-1.328;2023-09-12T13:06:16;5.00;;;1.85;;
22363;SDS011;11349;53.412;-1.328;2023-09-12T13:08:46;5.38;;;1.85;;
22363;SDS011;11349;53.412;-1.328;2023-09-12T13:11:14;2.85;;;1.50;;
22363;SDS011;11349;53.412;-1.328;2023-09-12T13:13:41;3.63;;;1.70;;
22363;SDS011;11349;53.412;-1.328;2023-09-12T13:16:09;3.70;;;1.63;;
22363;SDS011;11349;53.412;-1.328;2023-09-12T13:18:36;4.65;;;1.45;;
22363;SDS011;11349;53.412;-1.328;2023-09-12T13:21:02;4.10;;;1.70;;
22363;SDS011;11349;53.412;-1.328;2023-09-12T13:23:28;3.33;;;1.80;;
22363;SDS011;11349;53.412;-1.328;2023-09-12T13:25:54;4.15;;;1.65;;
22363;SDS011;11349;53.412;-1.328;2023-09-12T13:28:21;2.95;;;1.60;;
22363;SDS011;11349;53.412;-1.328;2023-09-12T13:30:53;2.92;;;1.40;;
22363;SDS011;11349;53.412;-1.328;2023-09-12T13:33:19;5.28;;;2.15;;
22363;SDS011;11349;53.412;-1.328;2023-09-12T13:35:48;4.97;;;1.30;;
22363;SDS011;11349;53.412;-1.328;2023-09-12T13:38:15;3.75;;;1.83;;
22363;SDS011;11349;53.412;-1.328;2023-09-12T13:40:42;3.42;;;2.00;;
22363;SDS011;11349;53.412;-1.328;2023-09-12T13:43:09;3.35;;;1.90;;
22363;SDS011;11349;53.412;-1.328;2023-09-12T13:45:35;4.72;;;2.10;;
22363;SDS011;11349;53.412;-1.328;2023-09-12T13:48:02;6.55;;;2.20;;
22363;SDS011;11349;53.412;-1.328;2023-09-12T13:50:28;5.43;;;1.98;;
22363;SDS011;11349;53.412;-1.328;2023-09-12T13:52:55;3.63;;;1.60;;
22363;SDS011;11349;53.412;-1.328;2023-09-12T13:55:21;3.58;;;1.90;;
22363;SDS011;11349;53.412;-1.328;2023-09-12T13:57:48;4.68;;;1.70;;
22363;SDS011;11349;53.412;-1.328;2023-09-12T14:00:13;5.80;;;1.50;;
22363;SDS011;11349;53.412;-1.328;2023-09-12T14:02:39;7.72;;;1.70;;
22363;SDS011;11349;53.412;-1.328;2023-09-12T14:05:05;3.83;;;1.65;;
22363;SDS011;11349;53.412;-1.328;2023-09-12T14:07:31;5.45;;;1.80;;
22363;SDS011;11349;53.412;-1.328;2023-09-12T14:09:57;4.22;;;1.80;;
22363;SDS011;11349;53.412;-1.328;2023-09-12T14:12:23;4.43;;;2.08;;
22363;SDS011;11349;53.412;-1.328;2023-09-12T14:14:49;7.22;;;3.38;;
22363;SDS011;11349;53.412;-1.328;2023-09-12T14:17:15;3.13;;;1.60;;
22363;SDS011;11349;53.412;-1.328;2023-09-12T14:19:40;4.95;;;2.08;;
22363;SDS011;11349;53.412;-1.328;2023-09-12T14:22:06;7.15;;;3.33;;
22363;SDS011;11349;53.412;-1.328;2023-09-12T14:24:32;12.18;;;5.43;;
22363;SDS011;11349;53.412;-1.328;2023-09-12T14:26:57;10.45;;;5.30;;
22363;SDS011;11349;53.412;-1.328;2023-09-12T14:29:23;5.95;;;3.10;;
22363;SDS011;11349;53.412;-1.328;2023-09-12T14:31:52;5.30;;;2.60;;
22363;SDS011;11349;53.412;-1.328;2023-09-12T14:34:25;3.97;;;1.90;;
22363;SDS011;11349;53.412;-1.328;2023-09-12T14:36:57;4.38;;;2.35;;
22363;SDS011;11349;53.412;-1.328;2023-09-12T14:39:23;4.72;;;1.60;;
22363;SDS011;11349;53.412;-1.328;2023-09-12T14:41:50;9.48;;;2.10;;
22363;SDS011;11349;53.412;-1.328;2023-09-12T14:44:19;4.05;;;1.65;;
22363;SDS011;11349;53.412;-1.328;2023-09-12T14:46:53;3.45;;;1.95;;
22363;SDS011;11349;53.412;-1.328;2023-09-12T14:49:19;4.03;;;2.30;;
22363;SDS011;11349;53.412;-1.328;2023-09-12T14:51:45;4.40;;;1.85;;